createdAt,value
2023-05-19T00:01:31.278Z,98851.44
2023-05-19T00:03:40.633Z,98856.31
2023-05-19T00:05:46.758Z,98854.56
2023-05-19T00:07:55.614Z,98859.50
2023-05-19T00:10:01.319Z,98853.59
2023-05-19T00:12:06.734Z,98850.25
2023-05-19T00:14:13.303Z,98860.56
2023-05-19T00:16:18.705Z,98849.34
2023-05-19T00:18:23.761Z,98843.56
2023-05-19T00:20:31.556Z,98843.66
2023-05-19T00:22:37.140Z,98850.53
2023-05-19T00:24:42.172Z,98844.31
2023-05-19T00:26:47.063Z,98844.34
2023-05-19T00:28:52.358Z,98841.59
2023-05-19T00:30:57.641Z,98839.88
2023-05-19T00:33:04.748Z,98835.22
2023-05-19T00:35:11.031Z,98835.34
2023-05-19T00:37:19.037Z,98836.63
2023-05-19T00:39:24.060Z,98834.38
2023-05-19T00:41:29.153Z,98833.13
2023-05-19T00:43:34.512Z,98831.34
2023-05-19T00:45:39.816Z,98835.41
2023-05-19T00:47:44.480Z,98825.94
2023-05-19T00:49:49.662Z,98823.22
2023-05-19T00:51:54.847Z,98821.53
2023-05-19T00:54:02.354Z,98820.72
2023-05-19T00:56:07.859Z,98822.47
2023-05-19T00:58:14.640Z,98821.72
2023-05-19T01:00:19.932Z,98819.00
2023-05-19T01:02:25.222Z,98820.69
2023-05-19T01:04:30.030Z,98813.88
2023-05-19T01:06:35.497Z,98814.59
2023-05-19T01:08:41.470Z,98807.53
2023-05-19T01:10:49.183Z,98802.66
2023-05-19T01:12:54.226Z,98804.72
2023-05-19T01:14:59.495Z,98795.97
2023-05-19T01:17:10.672Z,98799.19
2023-05-19T01:19:35.539Z,98795.53
2023-05-19T01:22:13.381Z,98798.81
2023-05-19T01:24:48.263Z,98794.88
2023-05-19T01:27:18.888Z,98791.06
2023-05-19T01:29:44.060Z,98790.09
2023-05-19T01:31:52.376Z,98797.69
2023-05-19T01:33:57.849Z,98796.88
2023-05-19T01:36:05.712Z,98794.44
2023-05-19T01:38:12.377Z,98796.28
2023-05-19T01:40:19.388Z,98791.69
2023-05-19T01:42:25.419Z,98786.00
2023-05-19T01:44:31.726Z,98782.59
2023-05-19T01:46:37.148Z,98785.75
2023-05-19T01:48:45.223Z,98795.13
2023-05-19T01:50:52.066Z,98791.22
2023-05-19T01:52:57.592Z,98790.22
2023-05-19T01:55:02.784Z,98785.63
2023-05-19T01:57:16.145Z,98789.00
2023-05-19T01:59:31.391Z,98792.09
2023-05-19T02:01:45.016Z,98794.56
2023-05-19T02:04:05.362Z,98799.78
2023-05-19T02:06:27.876Z,98794.44
2023-05-19T02:08:37.708Z,98792.09
2023-05-19T02:10:48.706Z,98795.50
2023-05-19T02:12:57.714Z,98795.38
2023-05-19T02:15:07.830Z,98792.88
2023-05-19T02:17:15.855Z,98790.69
2023-05-19T02:19:28.746Z,98799.25
2023-05-19T02:21:34.178Z,98796.28
2023-05-19T02:23:39.458Z,98792.03
2023-05-19T02:25:44.197Z,98793.97
2023-05-19T02:27:49.396Z,98793.00
2023-05-19T02:29:54.315Z,98796.06
2023-05-19T02:31:59.309Z,98799.91
2023-05-19T02:34:04.251Z,98793.59
2023-05-19T02:36:14.693Z,98790.00
2023-05-19T02:38:19.687Z,98791.72
2023-05-19T02:40:25.182Z,98786.47
2023-05-19T02:42:30.634Z,98783.75
2023-05-19T02:44:35.500Z,98775.84
2023-05-19T02:46:40.484Z,98777.66
2023-05-19T02:48:45.637Z,98776.63
2023-05-19T02:50:50.632Z,98770.44
2023-05-19T02:52:58.175Z,98762.66
2023-05-19T02:55:03.583Z,98768.91
2023-05-19T02:57:08.762Z,98765.34
2023-05-19T02:59:13.801Z,98761.69
2023-05-19T03:01:18.841Z,98765.69
2023-05-19T03:03:23.841Z,98763.13
2023-05-19T03:05:28.715Z,98768.41
2023-05-19T03:07:33.936Z,98765.81
2023-05-19T03:09:42.125Z,98761.69
2023-05-19T03:11:47.105Z,98764.34
2023-05-19T03:13:52.168Z,98767.75
2023-05-19T03:15:58.087Z,98766.06
2023-05-19T03:18:03.105Z,98767.41
2023-05-19T03:20:11.038Z,98772.41
2023-05-19T03:22:15.958Z,98767.34
2023-05-19T03:24:21.007Z,98762.03
2023-05-19T03:26:29.541Z,98767.25
2023-05-19T03:28:35.449Z,98773.25
2023-05-19T03:30:40.369Z,98777.00
2023-05-19T03:32:57.381Z,98779.44
2023-05-19T03:35:02.537Z,98779.22
2023-05-19T03:37:08.095Z,98773.56
2023-05-19T03:39:15.586Z,98772.47
2023-05-19T03:41:21.500Z,98769.88
2023-05-19T03:43:29.486Z,98772.19
2023-05-19T03:45:38.778Z,98779.03
2023-05-19T03:48:02.276Z,98780.25
2023-05-19T03:50:34.288Z,98779.16
2023-05-19T03:52:50.314Z,98786.31
2023-05-19T03:55:05.703Z,98778.38
2023-05-19T03:57:11.215Z,98784.50
2023-05-19T03:59:19.102Z,98791.16
2023-05-19T04:01:24.214Z,98791.16
2023-05-19T04:03:29.472Z,98792.81
2023-05-19T04:05:34.559Z,98798.09
2023-05-19T04:07:39.716Z,98796.34
2023-05-19T04:09:45.297Z,98800.16
2023-05-19T04:11:50.264Z,98795.97
2023-05-19T04:13:56.083Z,98799.38
2023-05-19T04:16:03.960Z,98792.09
2023-05-19T04:18:09.156Z,98793.72
2023-05-19T04:20:15.854Z,98796.13
2023-05-19T04:22:20.930Z,98790.78
2023-05-19T04:24:26.374Z,98790.91
2023-05-19T04:26:34.704Z,98791.59
2023-05-19T04:28:42.586Z,98796.63
2023-05-19T04:30:47.990Z,98795.47
2023-05-19T04:32:58.302Z,98796.84
2023-05-19T04:35:03.712Z,98796.84
2023-05-19T04:37:14.308Z,98800.00
2023-05-19T04:39:19.325Z,98798.19
2023-05-19T04:41:24.791Z,98794.47
2023-05-19T04:43:29.900Z,98798.75
2023-05-19T04:45:37.944Z,98794.34
2023-05-19T04:47:44.704Z,98800.28
2023-05-19T04:49:55.841Z,98795.56
2023-05-19T04:52:01.768Z,98793.66
2023-05-19T04:54:08.687Z,98803.28
2023-05-19T04:56:15.634Z,98795.31
2023-05-19T04:58:22.288Z,98791.91
2023-05-19T05:00:27.280Z,98800.41
2023-05-19T05:02:43.122Z,98800.41
2023-05-19T05:04:48.386Z,98799.56
2023-05-19T05:06:58.076Z,98805.50
2023-05-19T05:09:04.573Z,98797.78
2023-05-19T05:11:11.098Z,98794.84
2023-05-19T05:13:16.746Z,98795.84
2023-05-19T05:15:28.870Z,98796.69
2023-05-19T05:17:37.961Z,98794.97
2023-05-19T05:19:44.239Z,98790.22
2023-05-19T05:21:52.081Z,98792.63
2023-05-19T05:24:01.116Z,98795.84
2023-05-19T05:26:19.162Z,98799.09
2023-05-19T05:28:26.730Z,98786.09
2023-05-19T05:30:32.534Z,98784.34
2023-05-19T05:32:37.519Z,98777.03
2023-05-19T05:34:48.527Z,98776.94
2023-05-19T05:36:56.684Z,98782.16
2023-05-19T05:39:05.868Z,98778.53
2023-05-19T05:41:11.282Z,98781.72
2023-05-19T05:43:16.191Z,98776.03
2023-05-19T05:45:26.599Z,98775.69
2023-05-19T05:47:33.324Z,98782.00
2023-05-19T05:49:40.463Z,98780.97
2023-05-19T05:51:57.979Z,98787.50
2023-05-19T05:54:15.751Z,98776.25
2023-05-19T05:56:24.737Z,98779.34
2023-05-19T05:58:33.620Z,98784.44
2023-05-19T06:00:39.616Z,98779.91
2023-05-19T06:02:50.064Z,98779.63
2023-05-19T06:04:56.963Z,98781.31
2023-05-19T06:07:02.397Z,98785.41
2023-05-19T06:09:14.397Z,98788.31
2023-05-19T06:11:26.332Z,98790.19
2023-05-19T06:13:34.948Z,98781.81
2023-05-19T06:15:42.472Z,98782.31
2023-05-19T06:18:04.429Z,98778.22
2023-05-19T06:20:13.246Z,98779.34
2023-05-19T06:22:18.282Z,98777.72
2023-05-19T06:24:25.931Z,98775.75
2023-05-19T06:26:31.122Z,98774.66
2023-05-19T06:28:35.878Z,98773.41
2023-05-19T06:30:41.146Z,98768.34
2023-05-19T06:33:17.302Z,98767.56
2023-05-19T06:35:22.583Z,98771.31
2023-05-19T06:37:27.589Z,98769.59
2023-05-19T06:39:39.029Z,98774.03
2023-05-19T06:41:44.114Z,98776.22
2023-05-19T06:44:04.154Z,98769.66
2023-05-19T06:46:13.406Z,98779.66
2023-05-19T06:48:18.738Z,98777.59
2023-05-19T06:50:23.979Z,98775.34
2023-05-19T06:52:28.751Z,98776.81
2023-05-19T06:54:38.037Z,98774.53
2023-05-19T06:56:43.248Z,98773.06
2023-05-19T06:58:49.477Z,98769.69
2023-05-19T07:00:54.625Z,98762.88
2023-05-19T07:03:01.197Z,98771.97
2023-05-19T07:05:06.740Z,98773.78
2023-05-19T07:07:12.261Z,98773.69
2023-05-19T07:09:17.690Z,98769.06
2023-05-19T07:11:26.546Z,98764.66
2023-05-19T07:13:33.129Z,98762.47
2023-05-19T07:15:38.260Z,98767.16
2023-05-19T07:17:44.213Z,98752.19
2023-05-19T07:19:52.031Z,98758.09
2023-05-19T07:21:59.498Z,98751.19
2023-05-19T07:24:04.670Z,98744.03
2023-05-19T07:26:09.728Z,98743.09
2023-05-19T07:28:17.630Z,98749.69
2023-05-19T07:30:22.684Z,98741.47
2023-05-19T07:32:28.040Z,98738.50
2023-05-19T07:34:33.086Z,98731.56
2023-05-19T07:36:38.127Z,98733.75
2023-05-19T07:38:43.183Z,98729.19
2023-05-19T07:40:48.177Z,98730.81
2023-05-19T07:42:53.397Z,98736.47
2023-05-19T07:45:01.001Z,98735.09
2023-05-19T07:47:07.012Z,98731.81
2023-05-19T07:49:11.976Z,98726.34
2023-05-19T07:51:19.597Z,98725.72
2023-05-19T07:53:24.794Z,98731.34
2023-05-19T07:55:29.488Z,98729.91
2023-05-19T07:57:34.436Z,98732.47
2023-05-19T07:59:41.990Z,98733.72
2023-05-19T08:01:49.797Z,98735.75
2023-05-19T08:03:54.864Z,98729.06
2023-05-19T08:05:59.612Z,98725.13
2023-05-19T08:08:04.808Z,98717.06
2023-05-19T08:10:10.104Z,98723.28
2023-05-19T08:12:15.163Z,98730.03
2023-05-19T08:14:22.553Z,98717.31
2023-05-19T08:16:27.724Z,98721.63
2023-05-19T08:18:37.734Z,98720.19
2023-05-19T08:20:42.741Z,98717.22
2023-05-19T08:22:47.749Z,98718.94
2023-05-19T08:24:52.763Z,98713.91
2023-05-19T08:26:57.798Z,98713.00
2023-05-19T08:29:02.759Z,98721.53
2023-05-19T08:31:07.759Z,98711.69
2023-05-19T08:33:15.471Z,98711.13
2023-05-19T08:35:23.249Z,98706.25
2023-05-19T08:37:28.223Z,98712.53
2023-05-19T08:39:34.439Z,98710.56
2023-05-19T08:41:39.728Z,98710.56
2023-05-19T08:43:45.634Z,98708.13
2023-05-19T08:45:50.728Z,98695.81
2023-05-19T08:47:56.008Z,98698.44
2023-05-19T08:50:07.777Z,98690.19
2023-05-19T08:52:23.623Z,98689.81
2023-05-19T08:54:33.974Z,98690.38
2023-05-19T08:56:40.528Z,98689.81
2023-05-19T08:58:49.321Z,98690.38
2023-05-19T09:00:56.765Z,98690.94
2023-05-19T09:03:17.614Z,98689.63
2023-05-19T09:05:23.814Z,98691.13
2023-05-19T09:07:34.985Z,98686.97
2023-05-19T09:09:43.309Z,98681.19
2023-05-19T09:11:49.381Z,98683.13
2023-05-19T09:13:57.421Z,98691.88
2023-05-19T09:16:03.482Z,98691.00
2023-05-19T09:18:13.191Z,98682.84
2023-05-19T09:20:20.454Z,98687.53
2023-05-19T09:22:26.828Z,98693.19
2023-05-19T09:24:35.024Z,98693.91
2023-05-19T09:26:41.370Z,98696.91
2023-05-19T09:28:48.016Z,98685.66
2023-05-19T09:31:05.587Z,98694.09
2023-05-19T09:33:10.877Z,98689.31
2023-05-19T09:35:17.416Z,98691.41
2023-05-19T09:37:26.164Z,98691.22
2023-05-19T09:39:32.997Z,98689.34
2023-05-19T09:41:40.648Z,98684.91
2023-05-19T09:43:45.691Z,98688.50
2023-05-19T09:45:51.017Z,98683.78
2023-05-19T09:47:56.408Z,98687.72
2023-05-19T09:50:01.610Z,98688.19
2023-05-19T09:52:06.837Z,98683.81
2023-05-19T09:54:12.170Z,98684.56
2023-05-19T09:56:17.732Z,98683.88
2023-05-19T09:58:26.598Z,98684.69
2023-05-19T10:00:34.369Z,98679.50
2023-05-19T10:02:40.190Z,98680.84
2023-05-19T10:04:45.990Z,98671.47
2023-05-19T10:06:53.854Z,98662.94
2023-05-19T10:09:02.580Z,98667.09
2023-05-19T10:11:08.678Z,98651.72
2023-05-19T10:13:15.175Z,98658.38
2023-05-19T10:15:23.450Z,98657.56
2023-05-19T10:17:45.642Z,98648.31
2023-05-19T10:19:56.118Z,98653.13
2023-05-19T10:22:03.983Z,98644.91
2023-05-19T10:24:10.455Z,98642.69
2023-05-19T10:26:17.115Z,98633.06
2023-05-19T10:28:25.749Z,98622.81
2023-05-19T10:30:37.479Z,98620.09
2023-05-19T10:32:44.646Z,98624.88
2023-05-19T10:35:19.156Z,98620.81
2023-05-19T10:37:34.558Z,98617.47
2023-05-19T10:39:39.958Z,98615.31
2023-05-19T10:41:53.865Z,98610.91
2023-05-19T10:44:08.937Z,98614.59
2023-05-19T10:46:16.706Z,98612.41
2023-05-19T10:48:24.340Z,98617.25
2023-05-19T10:50:29.545Z,98615.78
2023-05-19T10:52:34.272Z,98614.31
2023-05-19T10:54:46.271Z,98611.34
2023-05-19T10:56:52.066Z,98612.84
2023-05-19T10:59:00.585Z,98608.72
2023-05-19T11:01:06.914Z,98610.78
2023-05-19T11:03:24.478Z,98617.72
2023-05-19T11:05:32.930Z,98616.81
2023-05-19T11:07:38.429Z,98606.22
2023-05-19T11:09:43.875Z,98610.44
2023-05-19T11:11:50.693Z,98603.72
2023-05-19T11:13:57.836Z,98605.28
2023-05-19T11:16:10.498Z,98603.97
2023-05-19T11:18:18.212Z,98604.78
2023-05-19T11:20:27.806Z,98603.56
2023-05-19T11:22:39.015Z,98599.81
2023-05-19T11:24:50.476Z,98600.66
2023-05-19T11:26:57.801Z,98596.34
2023-05-19T11:29:04.430Z,98595.06
2023-05-19T11:31:10.928Z,98592.84
2023-05-19T11:33:19.597Z,98594.09
2023-05-19T11:35:27.723Z,98594.72
2023-05-19T11:37:38.072Z,98590.47
2023-05-19T11:39:44.047Z,98584.47
2023-05-19T11:41:49.139Z,98577.97
2023-05-19T11:43:53.864Z,98578.69
2023-05-19T11:45:59.584Z,98581.91
2023-05-19T11:48:05.799Z,98585.88
2023-05-19T11:50:13.763Z,98577.69
2023-05-19T11:52:25.095Z,98567.41
2023-05-19T11:54:36.890Z,98565.63
2023-05-19T11:56:43.803Z,98560.47
2023-05-19T11:58:48.850Z,98557.06
2023-05-19T12:00:56.598Z,98559.84
2023-05-19T12:03:01.860Z,98555.13
2023-05-19T12:05:07.288Z,98556.91
2023-05-19T12:07:17.685Z,98546.25
2023-05-19T12:09:25.765Z,98545.19
2023-05-19T12:11:33.325Z,98538.09
2023-05-19T12:13:38.443Z,98542.91
2023-05-19T12:15:43.630Z,98547.28
2023-05-19T12:17:48.957Z,98542.31
2023-05-19T12:19:57.114Z,98543.75
2023-05-19T12:22:04.196Z,98539.22
2023-05-19T12:24:10.291Z,98546.63
2023-05-19T12:26:20.234Z,98539.22
2023-05-19T12:28:25.333Z,98537.81
2023-05-19T12:30:31.277Z,98538.50
2023-05-19T12:32:38.388Z,98541.56
2023-05-19T12:34:43.429Z,98541.56
2023-05-19T12:36:48.184Z,98543.59
2023-05-19T12:38:57.105Z,98533.03
2023-05-19T12:41:02.526Z,98524.41
2023-05-19T12:43:10.142Z,98524.19
2023-05-19T12:45:16.504Z,98524.91
2023-05-19T12:47:23.290Z,98516.97
2023-05-19T12:49:28.536Z,98512.16
2023-05-19T12:51:33.524Z,98515.44
2023-05-19T12:53:39.731Z,98508.78
2023-05-19T12:55:46.026Z,98511.34
2023-05-19T12:57:54.963Z,98518.19
2023-05-19T13:00:08.434Z,98510.72
2023-05-19T13:02:13.513Z,98510.59
2023-05-19T13:04:18.467Z,98506.50
2023-05-19T13:06:23.655Z,98513.59
2023-05-19T13:08:28.603Z,98504.19
2023-05-19T13:10:36.249Z,98514.22
2023-05-19T13:12:41.228Z,98512.06
2023-05-19T13:14:46.374Z,98505.22
2023-05-19T13:16:54.065Z,98508.31
2023-05-19T13:18:59.655Z,98503.59
2023-05-19T13:21:05.941Z,98506.63
2023-05-19T13:23:13.278Z,98504.38
2023-05-19T13:25:18.817Z,98499.41
2023-05-19T13:27:24.979Z,98489.66
2023-05-19T13:29:30.036Z,98489.66
2023-05-19T13:31:34.837Z,98492.94
2023-05-19T13:33:45.601Z,98491.13
2023-05-19T13:35:50.939Z,98492.22
2023-05-19T13:37:56.102Z,98489.34
2023-05-19T13:40:01.733Z,98480.66
2023-05-19T13:42:07.564Z,98486.09
2023-05-19T13:44:12.683Z,98486.44
2023-05-19T13:46:17.637Z,98485.13
2023-05-19T13:48:23.430Z,98483.31
2023-05-19T13:50:32.586Z,98477.56
2023-05-19T13:52:37.645Z,98485.00
2023-05-19T13:54:42.605Z,98480.53
2023-05-19T13:56:48.904Z,98479.59
2023-05-19T13:59:00.980Z,98486.84
2023-05-19T14:01:06.012Z,98483.19
2023-05-19T14:03:10.900Z,98487.72
2023-05-19T14:05:16.136Z,98486.69
2023-05-19T14:07:23.423Z,98477.78
2023-05-19T14:09:29.804Z,98476.91
2023-05-19T14:11:35.218Z,98474.13
2023-05-19T14:13:43.256Z,98471.94
2023-05-19T14:15:49.193Z,98475.28
2023-05-19T14:17:56.214Z,98472.47
2023-05-19T14:20:01.189Z,98466.31
2023-05-19T14:24:13.560Z,98468.03
2023-05-19T14:26:19.893Z,98461.69
2023-05-19T14:28:24.922Z,98467.13
2023-05-19T14:30:29.733Z,98466.28
2023-05-19T14:32:34.903Z,98461.69
2023-05-19T14:34:40.347Z,98451.19
2023-05-19T14:36:45.050Z,98447.69
2023-05-19T14:38:50.141Z,98450.50
2023-05-19T14:40:57.712Z,98450.91
2023-05-19T14:43:02.641Z,98449.75
2023-05-19T14:45:07.747Z,98437.81
2023-05-19T14:47:12.841Z,98439.56
2023-05-19T14:49:17.886Z,98440.81
2023-05-19T14:51:23.536Z,98444.16
2023-05-19T14:53:28.690Z,98436.66
2023-05-19T14:55:33.709Z,98441.66
2023-05-19T14:57:41.667Z,98438.69
2023-05-19T14:59:46.697Z,98433.75
2023-05-19T15:01:51.643Z,98442.22
2023-05-19T15:06:01.499Z,98436.16
2023-05-19T15:08:06.617Z,98436.09
2023-05-19T15:10:12.335Z,98435.94
2023-05-19T15:12:20.067Z,98429.69
2023-05-19T15:14:28.612Z,98448.00
2023-05-19T15:16:35.120Z,98439.94
2023-05-19T15:18:40.585Z,98446.28
2023-05-19T15:20:46.772Z,98441.97
2023-05-19T15:22:51.901Z,98440.09
2023-05-19T15:24:56.868Z,98438.97
2023-05-19T15:27:01.883Z,98438.47
2023-05-19T15:29:06.637Z,98433.50
2023-05-19T15:31:14.338Z,98434.28
2023-05-19T15:33:19.430Z,98438.91
2023-05-19T15:35:24.501Z,98440.06
2023-05-19T15:37:29.661Z,98437.31
2023-05-19T15:39:35.214Z,98437.84
2023-05-19T15:41:40.308Z,98444.47
2023-05-19T15:43:46.620Z,98444.13
2023-05-19T15:45:55.058Z,98443.16
2023-05-19T15:48:02.787Z,98448.47
2023-05-19T15:50:08.358Z,98445.34
2023-05-19T15:52:13.277Z,98443.41
2023-05-19T15:54:18.186Z,98443.16
2023-05-19T15:56:23.312Z,98441.97
2023-05-19T15:58:28.378Z,98433.28
2023-05-19T16:00:33.176Z,98434.03
2023-05-19T16:02:38.566Z,98432.81
2023-05-19T16:05:00.748Z,98436.19
2023-05-19T16:07:08.778Z,98436.44
2023-05-19T16:09:13.707Z,98433.19
2023-05-19T16:11:20.791Z,98437.63
2023-05-19T16:13:26.236Z,98437.16
2023-05-19T16:15:31.164Z,98436.81
2023-05-19T16:17:38.688Z,98439.69
2023-05-19T16:19:43.819Z,98434.28
2023-05-19T16:21:48.663Z,98434.06
2023-05-19T16:23:56.233Z,98437.88
2023-05-19T16:26:01.362Z,98424.91
2023-05-19T16:28:06.469Z,98427.78
2023-05-19T16:30:11.789Z,98416.72
2023-05-19T16:32:16.830Z,98420.56
2023-05-19T16:34:21.784Z,98431.88
2023-05-19T16:36:26.793Z,98429.47
2023-05-19T16:38:31.783Z,98428.00
2023-05-19T16:40:42.313Z,98430.19
2023-05-19T16:42:47.319Z,98436.06
2023-05-19T16:44:52.083Z,98436.41
2023-05-19T16:46:57.098Z,98438.22
2023-05-19T16:49:02.079Z,98434.69
2023-05-19T16:51:07.099Z,98431.56
2023-05-19T16:53:12.184Z,98435.47
2023-05-19T16:55:20.177Z,98428.59
2023-05-19T16:57:27.715Z,98423.38
2023-05-19T16:59:32.737Z,98428.78
2023-05-19T17:01:37.731Z,98422.16
2023-05-19T17:03:42.606Z,98427.75
2023-05-19T17:05:47.616Z,98434.59
2023-05-19T17:07:52.386Z,98429.69
2023-05-19T17:09:57.543Z,98426.63
2023-05-19T17:12:02.584Z,98424.88
2023-05-19T17:14:10.539Z,98424.38
2023-05-19T17:16:15.516Z,98430.25
2023-05-19T17:18:20.637Z,98425.94
2023-05-19T17:20:25.422Z,98423.53
2023-05-19T17:22:30.517Z,98425.59
2023-05-19T17:24:36.105Z,98423.88
2023-05-19T17:26:41.054Z,98427.44
2023-05-19T17:28:46.047Z,98425.50
2023-05-19T17:30:53.779Z,98427.63
2023-05-19T17:32:59.579Z,98436.34
2023-05-19T17:35:06.780Z,98437.28
2023-05-19T17:37:11.740Z,98440.47
2023-05-19T17:39:16.652Z,98437.06
2023-05-19T17:41:22.108Z,98437.06
2023-05-19T17:43:27.066Z,98434.56
2023-05-19T17:45:32.061Z,98436.44
2023-05-19T17:48:07.531Z,98435.53
2023-05-19T17:50:13.343Z,98439.22
2023-05-19T17:52:19.460Z,98445.19
2023-05-19T17:54:26.415Z,98439.69
2023-05-19T17:56:36.755Z,98440.88
2023-05-19T17:58:46.859Z,98441.50
2023-05-19T18:00:52.594Z,98445.88
2023-05-19T18:03:00.095Z,98444.13
2023-05-19T18:05:09.126Z,98441.91
2023-05-19T18:07:16.696Z,98441.09
2023-05-19T18:09:22.601Z,98446.13
2023-05-19T18:11:28.153Z,98442.78
2023-05-19T18:13:33.279Z,98440.03
2023-05-19T18:15:38.487Z,98439.63
2023-05-19T18:17:43.846Z,98440.88
2023-05-19T18:19:49.635Z,98438.56
2023-05-19T18:21:57.630Z,98430.56
2023-05-19T18:24:07.630Z,98436.44
2023-05-19T18:26:13.248Z,98438.03
2023-05-19T18:28:18.297Z,98439.22
2023-05-19T18:30:23.493Z,98438.78
2023-05-19T18:32:28.353Z,98438.94
2023-05-19T18:34:33.284Z,98432.00
2023-05-19T18:36:38.317Z,98442.06
2023-05-19T18:38:47.546Z,98445.66
2023-05-19T18:40:52.635Z,98439.13
2023-05-19T18:42:57.314Z,98445.22
2023-05-19T18:45:02.443Z,98440.78
2023-05-19T18:47:07.339Z,98447.53
2023-05-19T18:49:12.276Z,98443.34
2023-05-19T18:51:18.781Z,98445.03
2023-05-19T18:53:24.279Z,98440.50
2023-05-19T18:55:31.788Z,98450.00
2023-05-19T18:57:37.010Z,98457.69
2023-05-19T18:59:41.648Z,98451.56
2023-05-19T19:01:46.684Z,98458.06
2023-05-19T19:03:52.145Z,98463.88
2023-05-19T19:05:57.856Z,98462.91
2023-05-19T19:08:05.674Z,98465.84
2023-05-19T19:10:12.017Z,98473.03
2023-05-19T19:12:20.423Z,98481.72
2023-05-19T19:14:25.826Z,98479.84
2023-05-19T19:16:30.776Z,98485.53
2023-05-19T19:18:36.845Z,98482.81
2023-05-19T19:20:41.814Z,98480.25
2023-05-19T19:22:46.775Z,98486.47
2023-05-19T19:24:51.986Z,98490.06
2023-05-19T19:26:56.766Z,98486.91
2023-05-19T19:29:04.515Z,98486.81
2023-05-19T19:31:09.753Z,98492.78
2023-05-19T19:33:14.810Z,98486.34
2023-05-19T19:35:19.928Z,98488.25
2023-05-19T19:37:24.852Z,98485.44
2023-05-19T19:39:29.838Z,98490.69
2023-05-19T19:41:34.979Z,98484.03
2023-05-19T19:43:45.694Z,98489.16
2023-05-19T19:46:01.771Z,98495.97
2023-05-19T19:48:07.551Z,98502.56
2023-05-19T19:50:14.564Z,98501.81
2023-05-19T19:52:20.139Z,98500.81
2023-05-19T19:54:25.253Z,98499.88
2023-05-19T19:56:30.074Z,98502.81
2023-05-19T19:58:35.119Z,98505.44
2023-05-19T20:00:40.570Z,98509.31
2023-05-19T20:03:03.445Z,98506.03
2023-05-19T20:05:10.613Z,98507.28
2023-05-19T20:07:19.400Z,98502.66
2023-05-19T20:09:24.530Z,98504.84
2023-05-19T20:11:29.629Z,98494.50
2023-05-19T20:13:34.355Z,98499.97
2023-05-19T20:15:39.552Z,98499.47
2023-05-19T20:17:47.405Z,98489.91
2023-05-19T20:19:52.372Z,98492.53
2023-05-19T20:21:57.388Z,98492.75
2023-05-19T20:24:02.501Z,98495.38
2023-05-19T20:26:12.417Z,98497.25
2023-05-19T20:28:18.296Z,98497.16
2023-05-19T20:30:23.452Z,98498.63
2023-05-19T20:32:28.254Z,98505.81
2023-05-19T20:34:36.012Z,98496.78
2023-05-19T20:36:41.195Z,98509.06
2023-05-19T20:38:48.053Z,98491.25
2023-05-19T20:40:53.288Z,98494.34
2023-05-19T20:42:58.045Z,98489.66
2023-05-19T20:45:03.371Z,98493.50
2023-05-19T20:47:09.350Z,98498.00
2023-05-19T20:49:14.280Z,98499.03
2023-05-19T20:51:23.848Z,98499.41
2023-05-19T20:53:29.072Z,98503.75
2023-05-19T20:55:36.251Z,98502.78
2023-05-19T20:57:41.366Z,98502.78
2023-05-19T20:59:46.672Z,98500.25
2023-05-19T21:01:51.774Z,98505.41
2023-05-19T21:03:56.733Z,98502.88
2023-05-19T21:06:01.711Z,98508.13
2023-05-19T21:08:13.008Z,98509.91
2023-05-19T21:10:18.193Z,98507.66
2023-05-19T21:12:25.320Z,98501.81
2023-05-19T21:14:30.535Z,98504.66
2023-05-19T21:16:38.985Z,98506.34
2023-05-19T21:18:44.156Z,98499.56
2023-05-19T21:20:48.860Z,98500.13
2023-05-19T21:22:54.012Z,98506.41
2023-05-19T21:25:01.539Z,98498.13
2023-05-19T21:27:06.685Z,98501.78
2023-05-19T21:29:11.901Z,98500.19
2023-05-19T21:31:16.924Z,98502.22
2023-05-19T21:33:24.756Z,98503.13
2023-05-19T21:35:29.721Z,98509.97
2023-05-19T21:37:34.887Z,98503.13
2023-05-19T21:39:40.259Z,98505.50
2023-05-19T21:41:47.820Z,98497.56
2023-05-19T21:43:53.047Z,98498.38
2023-05-19T21:45:57.751Z,98503.91
2023-05-19T21:48:02.873Z,98499.94
2023-05-19T21:50:08.222Z,98494.00
2023-05-19T21:52:16.369Z,98495.72
2023-05-19T21:54:21.527Z,98501.06
2023-05-19T21:56:26.773Z,98496.81
2023-05-19T21:58:34.329Z,98502.06
2023-05-19T22:00:39.558Z,98495.50
2023-05-19T22:02:44.688Z,98492.13
2023-05-19T22:04:49.765Z,98489.41
2023-05-19T22:06:54.772Z,98491.75
2023-05-19T22:09:01.263Z,98488.09
2023-05-19T22:11:06.918Z,98485.31
2023-05-19T22:13:11.884Z,98488.94
2023-05-19T22:15:19.446Z,98483.28
2023-05-19T22:17:24.347Z,98491.34
2023-05-19T22:19:29.515Z,98486.34
2023-05-19T22:21:35.000Z,98480.81
2023-05-19T22:23:40.198Z,98480.63
2023-05-19T22:25:45.226Z,98478.19
2023-05-19T22:27:50.167Z,98480.91
2023-05-19T22:29:55.104Z,98478.72
2023-05-19T22:32:02.700Z,98474.50
2023-05-19T22:34:07.720Z,98467.75
2023-05-19T22:36:13.656Z,98472.03
2023-05-19T22:38:18.705Z,98471.63
2023-05-19T22:40:23.652Z,98464.41
2023-05-19T22:42:28.613Z,98466.84
2023-05-19T22:44:33.566Z,98465.75
2023-05-19T22:46:38.614Z,98460.75
2023-05-19T22:48:46.127Z,98459.81
2023-05-19T22:50:51.126Z,98459.72
2023-05-19T22:52:56.161Z,98459.44
2023-05-19T22:55:01.099Z,98456.81
2023-05-19T22:57:06.697Z,98464.13
2023-05-19T22:59:11.760Z,98461.13
2023-05-19T23:01:17.316Z,98465.25
2023-05-19T23:03:22.383Z,98461.72
2023-05-19T23:05:29.963Z,98460.50
2023-05-19T23:07:34.889Z,98459.63
2023-05-19T23:09:39.818Z,98460.75
2023-05-19T23:11:45.034Z,98450.53
2023-05-19T23:13:49.945Z,98454.03
2023-05-19T23:15:54.913Z,98454.03
2023-05-19T23:18:01.486Z,98446.69
2023-05-19T23:20:06.868Z,98448.22
2023-05-19T23:22:14.955Z,98448.22
2023-05-19T23:24:19.895Z,98449.88
2023-05-19T23:26:24.813Z,98440.88
2023-05-19T23:28:32.069Z,98441.16
2023-05-19T23:30:39.856Z,98439.38
2023-05-19T23:32:44.951Z,98436.75
2023-05-19T23:34:52.424Z,98446.63
2023-05-19T23:36:57.451Z,98442.84
2023-05-19T23:39:05.812Z,98438.16
2023-05-19T23:41:10.768Z,98434.41
2023-05-19T23:43:16.097Z,98442.00
2023-05-19T23:45:20.977Z,98434.25
2023-05-19T23:47:26.151Z,98439.56
2023-05-19T23:49:30.830Z,98439.50
2023-05-19T23:51:35.865Z,98441.25
2023-05-19T23:53:40.944Z,98439.94
2023-05-19T23:55:48.865Z,98433.56
2023-05-19T23:57:53.825Z,98439.75
2023-05-19T23:59:59.071Z,98431.88
